Time;durP1;ratioP1;P1;durP2;ratioP2;P2;SDS_P1;SDS_P2;PMS_P1;PMS_P2;Temp;Humidity;BMP_temperature;BMP_pressure;BME280_temperature;BME280_humidity;BME280_pressure;Samples;Min_cycle;Max_cycle;Signal;HPM_P1;HPM_P2
2022/04/29 00:02:13;;;;;;;11.93;6.28;;;;;;;;;;5073314;28;20434;-28
2022/04/29 00:04:39;;;;;;;10.10;6.90;;;;;;;;;;5073133;28;20032;-30
2022/04/29 00:07:07;;;;;;;8.85;5.82;;;;;;;;;;5072866;28;20037;-29
2022/04/29 00:09:33;;;;;;;7.55;6.80;;;;;;;;;;5073437;28;20083;-27
2022/04/29 00:12:02;;;;;;;16.90;6.88;;;;;;;;;;5067306;28;20391;-26
2022/04/29 00:14:28;;;;;;;15.43;6.45;;;;;;;;;;5056327;28;20506;-27
2022/04/29 00:16:54;;;;;;;10.23;6.38;;;;;;;;;;5056002;28;20037;-28
2022/04/29 00:19:20;;;;;;;8.90;6.20;;;;;;;;;;5073029;28;20452;-27
2022/04/29 00:21:46;;;;;;;12.57;6.55;;;;;;;;;;5073267;28;20379;-28
2022/04/29 00:24:13;;;;;;;12.07;6.68;;;;;;;;;;5072598;28;20052;-30
2022/04/29 00:26:40;;;;;;;10.43;6.55;;;;;;;;;;5073280;28;20502;-27
2022/04/29 00:29:06;;;;;;;11.80;6.60;;;;;;;;;;5072479;28;20072;-29
2022/04/29 00:31:32;;;;;;;12.20;6.30;;;;;;;;;;5073025;28;20048;-28
2022/04/29 00:33:59;;;;;;;8.77;6.05;;;;;;;;;;5072285;28;20040;-27
2022/04/29 00:36:25;;;;;;;13.60;7.05;;;;;;;;;;5073359;28;20043;-27
2022/04/29 00:38:52;;;;;;;10.30;6.65;;;;;;;;;;5072247;28;20083;-27
2022/04/29 00:41:22;;;;;;;13.23;7.25;;;;;;;;;;5072632;28;20047;-27
2022/04/29 00:43:59;;;;;;;10.85;6.50;;;;;;;;;;5071386;28;20518;-28
2022/04/29 00:46:25;;;;;;;14.55;6.10;;;;;;;;;;5073248;28;20091;-27
2022/04/29 00:48:51;;;;;;;13.75;7.10;;;;;;;;;;5071779;28;20052;-27
2022/04/29 00:51:17;;;;;;;10.25;6.50;;;;;;;;;;5072346;28;20119;-26
2022/04/29 00:53:43;;;;;;;11.05;6.55;;;;;;;;;;5071704;28;20116;-27
2022/04/29 00:56:11;;;;;;;10.18;6.38;;;;;;;;;;5054209;28;20040;-28
2022/04/29 00:58:39;;;;;;;10.55;6.78;;;;;;;;;;5067077;28;20036;-27
2022/04/29 01:01:05;;;;;;;9.82;6.18;;;;;;;;;;5072355;28;20047;-26
2022/04/29 01:03:32;;;;;;;10.82;6.60;;;;;;;;;;5071487;28;20060;-29
2022/04/29 01:05:58;;;;;;;8.38;6.13;;;;;;;;;;5072212;28;20044;-29
2022/04/29 01:08:24;;;;;;;9.38;6.45;;;;;;;;;;5071642;28;20045;-29
2022/04/29 01:10:50;;;;;;;9.00;5.93;;;;;;;;;;5072087;28;20044;-28
2022/04/29 01:13:17;;;;;;;11.90;6.78;;;;;;;;;;5071261;28;20040;-29
2022/04/29 01:15:44;;;;;;;8.63;7.05;;;;;;;;;;5071006;28;20141;-27
2022/04/29 01:18:10;;;;;;;9.35;6.40;;;;;;;;;;5072672;28;20153;-28
2022/04/29 01:20:37;;;;;;;11.45;6.88;;;;;;;;;;5059290;28;20446;-27
2022/04/29 01:23:07;;;;;;;11.60;6.47;;;;;;;;;;5056251;28;20055;-25
2022/04/29 01:25:33;;;;;;;11.98;7.18;;;;;;;;;;5071890;28;20041;-25
2022/04/29 01:27:59;;;;;;;11.00;6.88;;;;;;;;;;5072236;28;20211;-25
2022/04/29 01:30:25;;;;;;;15.60;7.55;;;;;;;;;;5071213;28;20533;-25
2022/04/29 01:32:53;;;;;;;10.43;6.88;;;;;;;;;;5057903;28;20037;-25
2022/04/29 01:35:19;;;;;;;12.80;7.57;;;;;;;;;;5064211;28;20041;-25
2022/04/29 01:37:46;;;;;;;12.57;7.70;;;;;;;;;;5071476;28;20603;-26
2022/04/29 01:40:12;;;;;;;14.02;6.88;;;;;;;;;;5071629;28;20451;-25
2022/04/29 01:42:40;;;;;;;10.13;6.82;;;;;;;;;;5071852;28;20037;-27
2022/04/29 01:45:08;;;;;;;14.35;7.50;;;;;;;;;;5071737;28;20036;-25
2022/04/29 01:47:34;;;;;;;10.88;7.32;;;;;;;;;;5071662;28;20063;-26
2022/04/29 01:50:00;;;;;;;11.57;7.00;;;;;;;;;;5071550;28;20048;-25
2022/04/29 01:52:26;;;;;;;11.15;6.63;;;;;;;;;;5053809;28;20514;-26
2022/04/29 01:54:52;;;;;;;12.35;7.32;;;;;;;;;;5068852;28;20032;-26
2022/04/29 01:57:18;;;;;;;8.55;6.88;;;;;;;;;;5071408;28;20032;-27
2022/04/29 01:59:44;;;;;;;10.05;6.47;;;;;;;;;;5070957;28;20203;-28
2022/04/29 02:02:11;;;;;;;11.93;7.15;;;;;;;;;;5070830;28;20051;-26
2022/04/29 02:04:37;;;;;;;12.48;6.30;;;;;;;;;;5069907;28;20106;-27
2022/04/29 02:07:04;;;;;;;12.23;7.07;;;;;;;;;;5071263;28;20050;-27
2022/04/29 02:09:30;;;;;;;14.63;6.80;;;;;;;;;;5071294;28;20041;-26
2022/04/29 02:12:05;;;;;;;9.98;6.60;;;;;;;;;;5071571;28;20040;-26
2022/04/29 02:14:35;;;;;;;10.63;6.53;;;;;;;;;;5071374;28;20032;-26
2022/04/29 02:17:05;;;;;;;11.65;7.28;;;;;;;;;;5071386;28;20517;-28
2022/04/29 02:19:31;;;;;;;9.90;6.88;;;;;;;;;;5071645;28;20490;-27
2022/04/29 02:21:58;;;;;;;9.63;6.97;;;;;;;;;;5070885;28;20048;-26
2022/04/29 02:24:24;;;;;;;9.38;6.63;;;;;;;;;;5071472;28;20512;-26
2022/04/29 02:26:50;;;;;;;11.52;6.22;;;;;;;;;;5071400;28;20111;-28
2022/04/29 02:29:16;;;;;;;9.02;6.78;;;;;;;;;;5071851;28;20512;-29
2022/04/29 02:31:42;;;;;;;11.32;7.05;;;;;;;;;;5069394;28;20044;-27
2022/04/29 02:34:08;;;;;;;13.15;6.93;;;;;;;;;;5071470;28;20478;-27
2022/04/29 02:36:34;;;;;;;8.90;6.57;;;;;;;;;;5053291;28;20111;-29
2022/04/29 02:39:03;;;;;;;8.90;6.82;;;;;;;;;;5071185;28;20044;-26
2022/04/29 02:41:29;;;;;;;11.15;7.30;;;;;;;;;;5070676;28;20072;-26
2022/04/29 02:43:55;;;;;;;10.98;6.80;;;;;;;;;;5070675;28;20094;-26
2022/04/29 02:46:21;;;;;;;11.70;6.85;;;;;;;;;;5070766;28;20033;-26
2022/04/29 02:48:48;;;;;;;8.75;6.95;;;;;;;;;;5071216;28;20067;-26
2022/04/29 02:51:15;;;;;;;12.30;7.05;;;;;;;;;;5070716;28;20040;-26
2022/04/29 02:53:42;;;;;;;10.32;7.00;;;;;;;;;;5070156;28;20044;-26
2022/04/29 02:56:08;;;;;;;10.63;6.57;;;;;;;;;;5070086;28;20068;-26
2022/04/29 02:58:34;;;;;;;11.82;6.97;;;;;;;;;;5069947;28;20044;-27
2022/04/29 03:01:01;;;;;;;11.07;6.25;;;;;;;;;;5070185;28;20402;-27
2022/04/29 03:03:28;;;;;;;12.60;7.00;;;;;;;;;;5052642;28;20468;-26
2022/04/29 03:05:54;;;;;;;13.52;6.97;;;;;;;;;;5067258;28;20088;-26
2022/04/29 03:08:20;;;;;;;11.75;7.10;;;;;;;;;;5055015;28;20094;-27
2022/04/29 03:10:49;;;;;;;10.45;7.13;;;;;;;;;;5058005;28;20474;-26
2022/04/29 03:13:16;;;;;;;11.55;7.43;;;;;;;;;;5057042;28;20119;-26
2022/04/29 03:15:42;;;;;;;10.38;7.10;;;;;;;;;;5074809;28;20041;-28
2022/04/29 03:18:23;;;;;;;12.90;7.60;;;;;;;;;;5074708;28;20041;-27
2022/04/29 03:20:53;;;;;;;13.63;7.78;;;;;;;;;;5074623;28;20036;-26
2022/04/29 03:23:19;;;;;;;11.45;7.07;;;;;;;;;;5074968;28;20051;-27
2022/04/29 03:25:46;;;;;;;14.45;7.80;;;;;;;;;;5056900;28;20059;-28
2022/04/29 03:28:12;;;;;;;9.93;6.65;;;;;;;;;;5074424;28;20045;-26
2022/04/29 03:30:38;;;;;;;11.40;6.63;;;;;;;;;;5074731;28;20069;-27
2022/04/29 03:33:05;;;;;;;13.15;7.70;;;;;;;;;;5074773;28;20036;-26
2022/04/29 03:35:32;;;;;;;13.57;6.68;;;;;;;;;;5074749;28;20040;-27
2022/04/29 03:37:58;;;;;;;11.50;7.30;;;;;;;;;;5074370;28;20043;-26
2022/04/29 03:40:25;;;;;;;11.57;7.22;;;;;;;;;;5074822;28;20067;-27
2022/04/29 03:42:55;;;;;;;12.45;7.45;;;;;;;;;;5074608;28;20387;-26
2022/04/29 03:45:22;;;;;;;15.07;7.28;;;;;;;;;;5074684;28;20436;-27
2022/04/29 03:47:48;;;;;;;10.55;7.22;;;;;;;;;;5074681;28;20050;-27
2022/04/29 03:50:14;;;;;;;14.15;7.63;;;;;;;;;;5074532;28;20040;-27
2022/04/29 03:52:53;;;;;;;15.23;7.18;;;;;;;;;;5074550;28;20036;-27
2022/04/29 03:55:21;;;;;;;10.80;7.22;;;;;;;;;;5074443;28;20055;-27
2022/04/29 03:57:47;;;;;;;12.73;6.95;;;;;;;;;;5074625;28;20032;-27
2022/04/29 04:00:13;;;;;;;11.45;7.68;;;;;;;;;;5074302;28;20553;-28
2022/04/29 04:02:40;;;;;;;9.55;6.88;;;;;;;;;;5074417;28;20097;-27
2022/04/29 04:05:06;;;;;;;10.85;7.07;;;;;;;;;;5074110;28;20042;-26
2022/04/29 04:07:32;;;;;;;10.07;7.20;;;;;;;;;;5074151;28;20044;-26
2022/04/29 04:09:58;;;;;;;11.05;6.90;;;;;;;;;;5074032;28;20375;-26
2022/04/29 04:12:25;;;;;;;10.23;7.47;;;;;;;;;;5074005;28;20037;-26
2022/04/29 04:14:51;;;;;;;11.32;7.50;;;;;;;;;;5074195;28;20036;-27
2022/04/29 04:17:17;;;;;;;13.50;7.30;;;;;;;;;;5073262;28;20043;-28
2022/04/29 04:19:43;;;;;;;13.52;7.40;;;;;;;;;;5073231;28;20045;-26
2022/04/29 04:22:10;;;;;;;13.63;7.47;;;;;;;;;;5073504;28;20040;-27
2022/04/29 04:24:36;;;;;;;10.82;6.43;;;;;;;;;;5073995;28;20486;-27
2022/04/29 04:27:02;;;;;;;12.13;7.43;;;;;;;;;;5073760;28;20393;-27
2022/04/29 04:29:28;;;;;;;12.48;7.78;;;;;;;;;;5073850;28;20033;-27
2022/04/29 04:31:54;;;;;;;10.50;7.60;;;;;;;;;;5073549;28;20068;-27
2022/04/29 04:37:07;;;;;;;13.13;7.47;;;;;;;;;;5055439;28;20048;-27
2022/04/29 04:39:33;;;;;;;15.38;7.95;;;;;;;;;;5073394;28;20051;-27
2022/04/29 04:41:59;;;;;;;13.15;7.38;;;;;;;;;;5073402;28;20055;-27
2022/04/29 04:44:25;;;;;;;14.48;7.95;;;;;;;;;;5073359;28;20071;-28
2022/04/29 04:46:51;;;;;;;15.15;8.77;;;;;;;;;;5073519;28;20512;-28
2022/04/29 04:49:18;;;;;;;15.98;9.18;;;;;;;;;;5073387;28;20037;-29
2022/04/29 04:51:44;;;;;;;14.10;8.13;;;;;;;;;;5039050;28;20039;-26
2022/04/29 04:54:10;;;;;;;16.15;8.05;;;;;;;;;;5054935;28;20050;-27
2022/04/29 04:56:36;;;;;;;15.30;7.63;;;;;;;;;;5073286;28;20040;-28
2022/04/29 04:59:02;;;;;;;13.05;8.70;;;;;;;;;;5073307;28;20049;-27
2022/04/29 05:01:28;;;;;;;15.27;9.07;;;;;;;;;;5073263;28;20166;-26
2022/04/29 05:03:55;;;;;;;15.27;9.50;;;;;;;;;;5073242;28;20048;-28
2022/04/29 05:06:21;;;;;;;15.32;8.73;;;;;;;;;;5072697;28;20080;-27
2022/04/29 05:08:47;;;;;;;16.10;8.05;;;;;;;;;;5073042;28;20501;-28
2022/04/29 05:11:13;;;;;;;13.93;8.23;;;;;;;;;;5072562;28;20036;-26
2022/04/29 05:13:39;;;;;;;15.32;8.90;;;;;;;;;;5072924;28;20457;-27
2022/04/29 05:16:05;;;;;;;16.05;9.25;;;;;;;;;;5072924;28;20074;-27
2022/04/29 05:18:31;;;;;;;16.92;9.73;;;;;;;;;;5073105;28;20044;-27
2022/04/29 05:20:58;;;;;;;15.70;9.85;;;;;;;;;;5073320;28;20432;-27
2022/04/29 05:23:24;;;;;;;17.95;9.48;;;;;;;;;;5054067;28;20505;-27
2022/04/29 05:25:50;;;;;;;16.60;9.75;;;;;;;;;;5073469;28;20113;-28
2022/04/29 05:28:17;;;;;;;16.40;9.25;;;;;;;;;;5072602;28;20052;-28
2022/04/29 05:30:43;;;;;;;15.80;9.55;;;;;;;;;;5072636;28;20040;-28
2022/04/29 05:33:09;;;;;;;16.92;10.85;;;;;;;;;;5072164;28;20045;-26
2022/04/29 05:35:35;;;;;;;19.55;10.60;;;;;;;;;;5072337;28;20505;-27
2022/04/29 05:38:02;;;;;;;15.68;9.35;;;;;;;;;;5072051;28;20033;-29
2022/04/29 05:43:14;;;;;;;13.75;8.27;;;;;;;;;;5072392;28;20418;-25
2022/04/29 05:45:40;;;;;;;14.75;8.52;;;;;;;;;;5054039;28;20040;-26
2022/04/29 05:48:06;;;;;;;15.38;8.38;;;;;;;;;;5072172;28;20045;-25
2022/04/29 05:50:32;;;;;;;13.27;8.45;;;;;;;;;;5072115;28;20044;-25
2022/04/29 05:52:59;;;;;;;11.27;7.82;;;;;;;;;;5071147;28;20539;-25
2022/04/29 05:55:25;;;;;;;19.05;8.52;;;;;;;;;;5071151;28;20036;-26
2022/04/29 05:57:51;;;;;;;12.18;8.63;;;;;;;;;;5071242;28;20040;-25
2022/04/29 06:00:19;;;;;;;15.57;8.13;;;;;;;;;;5051640;28;20114;-25
2022/04/29 06:02:47;;;;;;;10.05;7.18;;;;;;;;;;5051098;28;20608;-24
2022/04/29 06:05:13;;;;;;;10.05;7.47;;;;;;;;;;5051514;28;20073;-27
2022/04/29 06:07:41;;;;;;;12.98;8.15;;;;;;;;;;5051615;28;20077;-25
2022/04/29 06:10:08;;;;;;;9.90;7.50;;;;;;;;;;5051773;28;20120;-25
2022/04/29 06:12:38;;;;;;;13.77;7.18;;;;;;;;;;5050186;28;20045;-24
2022/04/29 06:15:04;;;;;;;13.30;7.88;;;;;;;;;;5051661;28;20548;-26
2022/04/29 06:17:30;;;;;;;14.10;7.32;;;;;;;;;;5033846;28;20041;-25
2022/04/29 06:19:57;;;;;;;14.23;7.90;;;;;;;;;;5051809;28;20510;-26
2022/04/29 06:22:23;;;;;;;15.27;8.50;;;;;;;;;;5051591;28;20045;-27
2022/04/29 06:24:50;;;;;;;13.27;8.20;;;;;;;;;;5051319;28;20044;-26
2022/04/29 06:27:16;;;;;;;12.00;8.30;;;;;;;;;;5051642;28;20037;-27
2022/04/29 06:29:43;;;;;;;12.70;7.38;;;;;;;;;;5052485;28;20087;-25
2022/04/29 06:32:09;;;;;;;14.45;7.35;;;;;;;;;;5071551;28;20036;-27
2022/04/29 06:34:35;;;;;;;10.60;7.00;;;;;;;;;;5071013;28;20040;-27
2022/04/29 06:37:01;;;;;;;16.85;8.38;;;;;;;;;;5070415;28;20540;-25
2022/04/29 06:39:27;;;;;;;11.63;7.70;;;;;;;;;;5070590;28;20115;-25
2022/04/29 06:41:54;;;;;;;13.45;8.25;;;;;;;;;;5070682;28;20502;-30
2022/04/29 06:44:20;;;;;;;10.93;7.15;;;;;;;;;;5070655;28;20075;-26
2022/04/29 06:46:46;;;;;;;14.60;7.63;;;;;;;;;;5071332;28;20041;-27
2022/04/29 06:49:12;;;;;;;12.27;7.50;;;;;;;;;;5071600;28;20041;-25
2022/04/29 06:51:38;;;;;;;13.13;7.10;;;;;;;;;;5071123;28;20041;-26
2022/04/29 06:54:04;;;;;;;13.07;7.13;;;;;;;;;;5071555;28;20037;-26
2022/04/29 06:56:30;;;;;;;10.23;6.70;;;;;;;;;;5071187;28;20036;-26
2022/04/29 06:58:56;;;;;;;8.57;6.75;;;;;;;;;;5071631;28;20486;-27
2022/04/29 07:01:22;;;;;;;12.52;6.57;;;;;;;;;;5071224;28;20265;-26
2022/04/29 07:03:49;;;;;;;8.57;5.93;;;;;;;;;;5071480;28;20744;-26
2022/04/29 07:06:15;;;;;;;11.98;6.80;;;;;;;;;;5052981;28;20289;-26
2022/04/29 07:08:41;;;;;;;10.07;6.90;;;;;;;;;;5071297;28;20067;-25
2022/04/29 07:11:07;;;;;;;11.95;7.15;;;;;;;;;;5071123;28;20036;-25
2022/04/29 07:13:33;;;;;;;8.57;6.43;;;;;;;;;;5071015;28;20040;-27
2022/04/29 07:15:59;;;;;;;13.35;7.43;;;;;;;;;;5070707;28;20072;-26
2022/04/29 07:18:25;;;;;;;12.32;7.72;;;;;;;;;;5071224;28;20444;-26
2022/04/29 07:20:51;;;;;;;10.52;6.40;;;;;;;;;;5070992;28;20041;-25
2022/04/29 07:23:17;;;;;;;11.68;7.10;;;;;;;;;;5071276;28;20394;-26
2022/04/29 07:25:44;;;;;;;14.27;7.00;;;;;;;;;;5070967;28;20359;-26
2022/04/29 07:28:10;;;;;;;9.73;5.60;;;;;;;;;;5071000;28;20040;-25
2022/04/29 07:30:37;;;;;;;9.38;5.00;;;;;;;;;;5071118;28;20059;-26
2022/04/29 07:33:03;;;;;;;8.10;5.18;;;;;;;;;;5070960;28;20048;-27
2022/04/29 07:43:44;;;;;;;6.63;5.90;;;;;;;;;;5051960;28;20379;-28
2022/04/29 07:46:10;;;;;;;7.28;5.78;;;;;;;;;;5050848;28;20521;-26
2022/04/29 07:48:36;;;;;;;9.05;6.38;;;;;;;;;;5050701;28;20049;-26
2022/04/29 07:51:02;;;;;;;10.50;6.18;;;;;;;;;;5050970;28;20070;-27
2022/04/29 07:53:29;;;;;;;8.57;6.25;;;;;;;;;;5052365;28;20029;-28
2022/04/29 07:55:55;;;;;;;8.30;6.00;;;;;;;;;;5054534;28;20114;-26
2022/04/29 07:58:21;;;;;;;11.43;7.05;;;;;;;;;;5054697;28;20152;-28
2022/04/29 08:00:48;;;;;;;8.50;5.63;;;;;;;;;;5055210;28;20072;-25
2022/04/29 08:03:14;;;;;;;9.80;6.63;;;;;;;;;;5074199;28;20445;-26
2022/04/29 08:05:40;;;;;;;8.73;6.25;;;;;;;;;;5056238;28;20448;-26
2022/04/29 08:08:06;;;;;;;9.02;5.90;;;;;;;;;;5074068;28;20037;-26
2022/04/29 08:10:33;;;;;;;9.95;6.07;;;;;;;;;;5073834;28;20498;-26
2022/04/29 08:12:59;;;;;;;11.25;6.30;;;;;;;;;;5074246;28;20090;-25
2022/04/29 08:15:29;;;;;;;7.60;6.00;;;;;;;;;;5074407;28;20036;-25
2022/04/29 08:17:57;;;;;;;7.45;5.57;;;;;;;;;;5074140;28;20036;-26
2022/04/29 08:20:23;;;;;;;6.60;5.30;;;;;;;;;;5073913;28;20056;-26
2022/04/29 08:22:50;;;;;;;7.97;5.35;;;;;;;;;;5055850;28;20105;-27
2022/04/29 08:25:20;;;;;;;6.72;4.88;;;;;;;;;;5073964;28;20421;-26
2022/04/29 08:27:47;;;;;;;8.88;5.20;;;;;;;;;;5073950;28;20048;-27
2022/04/29 08:30:14;;;;;;;7.72;5.25;;;;;;;;;;5074198;28;20041;-25
2022/04/29 08:32:41;;;;;;;4.95;4.45;;;;;;;;;;5065279;28;20372;-27
2022/04/29 08:35:09;;;;;;;7.43;4.57;;;;;;;;;;5058111;28;20036;-27
2022/04/29 08:37:35;;;;;;;7.72;5.03;;;;;;;;;;5073913;28;20049;-26
2022/04/29 08:40:02;;;;;;;5.75;4.90;;;;;;;;;;5073942;28;20123;-27
2022/04/29 08:42:28;;;;;;;4.88;4.32;;;;;;;;;;5071722;28;20041;-26
2022/04/29 08:44:55;;;;;;;7.03;4.78;;;;;;;;;;5069820;28;20045;-26
2022/04/29 08:47:22;;;;;;;6.90;5.05;;;;;;;;;;5059190;28;20487;-25
2022/04/29 08:49:48;;;;;;;8.32;4.90;;;;;;;;;;5067013;28;20044;-27
2022/04/29 08:52:14;;;;;;;9.88;5.13;;;;;;;;;;5068070;28;20040;-28
2022/04/29 09:00:14;;;;;;;5.95;4.20;;;;;;;;;;5074009;28;20124;-28
2022/04/29 09:02:41;;;;;;;5.57;4.13;;;;;;;;;;5056049;28;20040;-27
2022/04/29 09:05:08;;;;;;;4.57;3.83;;;;;;;;;;5073259;28;20075;-27
2022/04/29 09:07:54;;;;;;;9.07;4.00;;;;;;;;;;5072976;28;20445;-27
2022/04/29 09:10:25;;;;;;;5.18;4.38;;;;;;;;;;5072283;28;20040;-26
2022/04/29 09:12:52;;;;;;;6.95;5.20;;;;;;;;;;5073139;28;20044;-27
2022/04/29 09:15:18;;;;;;;8.98;4.35;;;;;;;;;;5072672;28;20032;-28
2022/04/29 09:17:48;;;;;;;11.15;4.50;;;;;;;;;;5065814;28;20033;-29
2022/04/29 09:20:18;;;;;;;7.30;4.55;;;;;;;;;;5052459;28;20072;-26
2022/04/29 09:22:49;;;;;;;6.65;3.72;;;;;;;;;;5072400;28;20044;-29
2022/04/29 09:25:16;;;;;;;6.07;4.18;;;;;;;;;;5073050;28;20479;-27
2022/04/29 09:28:16;;;;;;;6.05;4.40;;;;;;;;;;5073101;28;20037;-27
2022/04/29 09:30:43;;;;;;;6.93;4.30;;;;;;;;;;5019908;28;20052;-28
2022/04/29 09:33:20;;;;;;;4.65;4.00;;;;;;;;;;5072996;28;20404;-28
2022/04/29 09:35:48;;;;;;;7.03;4.30;;;;;;;;;;5072773;28;20044;-29
2022/04/29 09:41:00;;;;;;;7.05;4.60;;;;;;;;;;5071810;28;20049;-26
2022/04/29 09:43:33;;;;;;;5.05;4.43;;;;;;;;;;5072174;28;20086;-26
2022/04/29 09:46:09;;;;;;;6.32;4.30;;;;;;;;;;5072506;28;20047;-31
2022/04/29 09:48:50;;;;;;;8.35;4.70;;;;;;;;;;5072222;28;20048;-28
2022/04/29 09:51:16;;;;;;;6.60;4.85;;;;;;;;;;5072069;28;20078;-27
2022/04/29 09:53:42;;;;;;;6.30;5.13;;;;;;;;;;5072029;28;20044;-27
2022/04/29 09:56:09;;;;;;;5.35;4.35;;;;;;;;;;5071961;28;20072;-29
2022/04/29 09:58:35;;;;;;;5.10;4.53;;;;;;;;;;5071664;28;20054;-28
2022/04/29 10:01:04;;;;;;;8.20;4.38;;;;;;;;;;5071673;28;20474;-28
2022/04/29 10:03:30;;;;;;;5.70;4.38;;;;;;;;;;5071748;28;20037;-27
2022/04/29 10:06:00;;;;;;;4.80;4.25;;;;;;;;;;5071735;28;20397;-29
2022/04/29 10:08:27;;;;;;;5.95;4.10;;;;;;;;;;5071795;28;20391;-27
2022/04/29 10:10:56;;;;;;;4.65;4.18;;;;;;;;;;5071733;28;20090;-28
2022/04/29 10:13:25;;;;;;;7.63;3.92;;;;;;;;;;5071469;28;20036;-26
2022/04/29 10:15:53;;;;;;;6.25;3.70;;;;;;;;;;5070550;28;20043;-29
2022/04/29 10:21:16;;;;;;;4.55;3.67;;;;;;;;;;5071293;28;20052;-27
2022/04/29 10:23:48;;;;;;;5.35;4.00;;;;;;;;;;5071547;28;20047;-28
2022/04/29 10:26:16;;;;;;;5.47;4.00;;;;;;;;;;5071719;28;20052;-28
2022/04/29 10:28:42;;;;;;;4.28;3.72;;;;;;;;;;5071612;28;20044;-27
2022/04/29 10:31:09;;;;;;;7.35;3.72;;;;;;;;;;5071293;28;20120;-26
2022/04/29 10:33:36;;;;;;;4.72;3.35;;;;;;;;;;5071229;28;20040;-27
2022/04/29 10:36:07;;;;;;;6.30;3.40;;;;;;;;;;5071477;28;20444;-28
2022/04/29 10:38:40;;;;;;;5.75;3.67;;;;;;;;;;5071287;28;20105;-27
2022/04/29 10:41:23;;;;;;;3.70;3.40;;;;;;;;;;5071306;28;20036;-28
2022/04/29 10:43:55;;;;;;;6.18;3.60;;;;;;;;;;5061437;28;20410;-27
2022/04/29 10:46:22;;;;;;;3.80;3.50;;;;;;;;;;5051086;28;20099;-25
2022/04/29 10:48:52;;;;;;;4.47;3.58;;;;;;;;;;5064877;28;20045;-26
2022/04/29 10:51:18;;;;;;;6.43;3.63;;;;;;;;;;5051149;28;20040;-27
2022/04/29 10:53:45;;;;;;;4.65;3.67;;;;;;;;;;5068829;28;20036;-27
2022/04/29 10:56:27;;;;;;;5.53;3.65;;;;;;;;;;5070850;28;20102;-27
2022/04/29 10:58:53;;;;;;;3.95;3.50;;;;;;;;;;5071021;28;20101;-27
2022/04/29 11:01:28;;;;;;;5.07;3.53;;;;;;;;;;5052970;28;20040;-28
2022/04/29 11:03:55;;;;;;;3.90;3.15;;;;;;;;;;5070977;28;20049;-28
2022/04/29 11:06:21;;;;;;;5.65;3.60;;;;;;;;;;5071098;28;20044;-28
2022/04/29 11:08:47;;;;;;;6.85;3.63;;;;;;;;;;5052976;28;20066;-27
2022/04/29 11:11:13;;;;;;;4.38;3.60;;;;;;;;;;5050750;28;20040;-27
2022/04/29 11:13:47;;;;;;;4.07;3.53;;;;;;;;;;5050672;28;20047;-26
2022/04/29 11:16:14;;;;;;;4.15;3.45;;;;;;;;;;5050802;28;20099;-26
2022/04/29 11:18:42;;;;;;;6.82;3.80;;;;;;;;;;5033251;28;20559;-26
2022/04/29 11:26:58;;;;;;;5.90;3.88;;;;;;;;;;5051091;28;20072;-27
2022/04/29 11:29:24;;;;;;;4.10;3.50;;;;;;;;;;5054853;28;20048;-27
2022/04/29 11:31:50;;;;;;;4.75;3.80;;;;;;;;;;5036815;28;20040;-26
2022/04/29 11:34:16;;;;;;;5.40;3.58;;;;;;;;;;5054880;28;20487;-26
2022/04/29 11:36:43;;;;;;;7.93;4.05;;;;;;;;;;5054592;28;20033;-28
2022/04/29 11:39:16;;;;;;;6.65;3.83;;;;;;;;;;5054469;28;20041;-26
2022/04/29 11:41:53;;;;;;;4.55;3.50;;;;;;;;;;5054554;28;20043;-25
2022/04/29 11:44:23;;;;;;;5.93;3.67;;;;;;;;;;5063486;28;20037;-27
2022/04/29 11:46:52;;;;;;;5.57;3.72;;;;;;;;;;5074153;28;20068;-29
2022/04/29 11:49:28;;;;;;;5.30;3.63;;;;;;;;;;5074269;28;20389;-28
2022/04/29 11:51:54;;;;;;;3.90;3.60;;;;;;;;;;5056231;28;20426;-28
2022/04/29 11:54:20;;;;;;;4.10;3.80;;;;;;;;;;5057844;28;20040;-27
2022/04/29 11:56:46;;;;;;;5.13;3.83;;;;;;;;;;5053318;28;20040;-27
2022/04/29 11:59:12;;;;;;;4.18;3.80;;;;;;;;;;5053961;28;20049;-26
2022/04/29 12:01:40;;;;;;;4.00;3.60;;;;;;;;;;5053903;28;20048;-27
2022/04/29 12:04:06;;;;;;;4.10;3.70;;;;;;;;;;5054236;28;20490;-26
2022/04/29 12:06:33;;;;;;;4.47;4.13;;;;;;;;;;5054154;28;20102;-28
2022/04/29 12:08:59;;;;;;;4.00;3.70;;;;;;;;;;5053933;28;20084;-27
2022/04/29 12:11:30;;;;;;;6.30;3.90;;;;;;;;;;5070933;28;20472;-27
2022/04/29 12:13:56;;;;;;;4.68;3.70;;;;;;;;;;5074015;28;20047;-28
2022/04/29 12:16:22;;;;;;;4.20;3.80;;;;;;;;;;5073882;28;20116;-27
2022/04/29 12:18:50;;;;;;;5.72;3.75;;;;;;;;;;5073670;28;20115;-28
2022/04/29 12:21:23;;;;;;;6.45;3.90;;;;;;;;;;5073780;28;20196;-26
2022/04/29 12:23:49;;;;;;;;;;;;;;;;;;5074149;28;20127;-28
2022/04/29 12:26:16;;;;;;;7.22;4.30;;;;;;;;;;5073712;28;20365;-28
2022/04/29 12:28:42;;;;;;;5.97;4.72;;;;;;;;;;5073561;28;20059;-26
2022/04/29 12:36:53;;;;;;;4.82;4.43;;;;;;;;;;5064216;28;20072;-27
2022/04/29 12:39:29;;;;;;;5.25;4.75;;;;;;;;;;5049998;28;20048;-26
2022/04/29 12:41:58;;;;;;;6.20;4.90;;;;;;;;;;5081119;28;20482;-28
2022/04/29 12:47:24;;;;;;;5.97;5.25;;;;;;;;;;5073407;28;20047;-26
2022/04/29 12:49:54;;;;;;;6.63;4.68;;;;;;;;;;5038532;28;20431;-26
2022/04/29 12:52:20;;;;;;;5.38;4.85;;;;;;;;;;5072840;28;20028;-27
2022/04/29 12:54:46;;;;;;;5.78;5.22;;;;;;;;;;5073044;28;20036;-26
2022/04/29 12:57:12;;;;;;;6.25;4.78;;;;;;;;;;5057853;28;20036;-26
2022/04/29 12:59:38;;;;;;;7.95;5.13;;;;;;;;;;5073458;28;20089;-26
2022/04/29 13:02:08;;;;;;;7.18;5.13;;;;;;;;;;5068198;28;20099;-26
2022/04/29 13:04:34;;;;;;;7.55;5.35;;;;;;;;;;5053818;28;20048;-27
2022/04/29 13:07:00;;;;;;;6.35;5.70;;;;;;;;;;5071001;28;20059;-28
2022/04/29 13:09:27;;;;;;;5.72;5.03;;;;;;;;;;5055732;28;20364;-27
2022/04/29 13:11:53;;;;;;;6.20;5.32;;;;;;;;;;5056093;28;20115;-27
2022/04/29 13:14:19;;;;;;;6.55;5.03;;;;;;;;;;5056742;28;20036;-28
2022/04/29 13:16:47;;;;;;;6.85;5.20;;;;;;;;;;5056067;28;20082;-27
2022/04/29 13:19:13;;;;;;;6.55;5.50;;;;;;;;;;5073486;28;20056;-26
2022/04/29 13:21:39;;;;;;;5.75;4.75;;;;;;;;;;5070227;28;20041;-29
2022/04/29 13:24:07;;;;;;;7.10;5.70;;;;;;;;;;5052619;28;20091;-27
2022/04/29 13:26:33;;;;;;;8.65;4.78;;;;;;;;;;5057394;28;20083;-27
2022/04/29 13:28:59;;;;;;;6.97;5.55;;;;;;;;;;5063373;28;20040;-28
2022/04/29 13:31:26;;;;;;;6.63;5.55;;;;;;;;;;5073123;28;20040;-27
2022/04/29 13:33:53;;;;;;;6.90;5.50;;;;;;;;;;5073184;28;20051;-26
2022/04/29 13:36:19;;;;;;;8.90;5.38;;;;;;;;;;5071111;28;20041;-32
2022/04/29 13:38:45;;;;;;;6.65;5.40;;;;;;;;;;5060595;28;20516;-29
2022/04/29 13:41:11;;;;;;;5.80;5.22;;;;;;;;;;5064022;28;20325;-31
2022/04/29 13:43:38;;;;;;;5.38;4.97;;;;;;;;;;5063983;28;20040;-29
2022/04/29 13:46:05;;;;;;;6.80;5.07;;;;;;;;;;5059312;28;20041;-29
2022/04/29 13:48:32;;;;;;;6.25;5.35;;;;;;;;;;5061228;28;20032;-31
2022/04/29 13:50:58;;;;;;;6.70;5.80;;;;;;;;;;5063421;28;20490;-30
2022/04/29 13:53:25;;;;;;;7.90;5.50;;;;;;;;;;5063994;28;20461;-28
2022/04/29 13:55:52;;;;;;;5.80;5.28;;;;;;;;;;5055585;28;20043;-29
2022/04/29 13:58:20;;;;;;;5.70;5.20;;;;;;;;;;5059070;28;20290;-33
2022/04/29 14:00:47;;;;;;;8.40;5.72;;;;;;;;;;5071859;28;20402;-29
2022/04/29 14:03:14;;;;;;;8.18;5.32;;;;;;;;;;5071885;28;20048;-30
2022/04/29 14:05:40;;;;;;;5.20;4.80;;;;;;;;;;5037376;28;20417;-28
2022/04/29 14:08:08;;;;;;;6.13;5.22;;;;;;;;;;5072302;28;20566;-30
2022/04/29 14:10:34;;;;;;;6.88;5.22;;;;;;;;;;5053361;28;20430;-29
2022/04/29 14:13:01;;;;;;;11.60;5.35;;;;;;;;;;5071496;28;20055;-30
2022/04/29 14:15:27;;;;;;;5.43;4.80;;;;;;;;;;5072143;28;20066;-32
2022/04/29 14:17:53;;;;;;;5.38;4.80;;;;;;;;;;5071755;28;20040;-30
2022/04/29 14:20:19;;;;;;;6.07;5.45;;;;;;;;;;5071411;28;20123;-31
2022/04/29 14:22:49;;;;;;;6.05;5.00;;;;;;;;;;5069361;28;20175;-31
2022/04/29 14:25:16;;;;;;;8.75;5.15;;;;;;;;;;5056646;28;20127;-29
2022/04/29 14:27:42;;;;;;;7.07;5.00;;;;;;;;;;5070591;28;20568;-29
2022/04/29 14:30:10;;;;;;;12.00;5.65;;;;;;;;;;5071670;28;20037;-30
2022/04/29 14:32:36;;;;;;;5.93;4.60;;;;;;;;;;5070778;28;20445;-29
2022/04/29 14:35:04;;;;;;;6.85;5.60;;;;;;;;;;5071092;28;20040;-29
2022/04/29 14:37:34;;;;;;;6.82;4.60;;;;;;;;;;5070152;28;20068;-30
2022/04/29 14:40:00;;;;;;;9.90;5.72;;;;;;;;;;5070924;28;20071;-31
2022/04/29 14:42:28;;;;;;;5.57;4.82;;;;;;;;;;5070861;28;20513;-29
2022/04/29 14:44:54;;;;;;;7.70;4.78;;;;;;;;;;5071152;28;20044;-30
2022/04/29 14:47:21;;;;;;;4.65;4.03;;;;;;;;;;5052100;28;20115;-28
2022/04/29 14:49:47;;;;;;;6.18;4.20;;;;;;;;;;5071241;28;20502;-31
2022/04/29 14:52:13;;;;;;;6.45;4.30;;;;;;;;;;5069296;28;20063;-29
2022/04/29 14:54:40;;;;;;;4.88;3.90;;;;;;;;;;5069592;28;20040;-30
2022/04/29 14:57:07;;;;;;;4.97;4.10;;;;;;;;;;5070135;28;20058;-29
2022/04/29 14:59:33;;;;;;;6.85;4.25;;;;;;;;;;5069533;28;20098;-28
2022/04/29 15:01:59;;;;;;;4.88;4.15;;;;;;;;;;5069826;28;20075;-29
2022/04/29 15:04:26;;;;;;;4.22;3.75;;;;;;;;;;5072399;28;20052;-30
2022/04/29 15:06:52;;;;;;;6.28;3.67;;;;;;;;;;5060363;28;20044;-30
2022/04/29 15:17:33;;;;;;;7.65;4.55;;;;;;;;;;5071255;28;20070;-29
2022/04/29 15:20:00;;;;;;;5.32;3.90;;;;;;;;;;5072949;28;20083;-31
2022/04/29 15:22:26;;;;;;;8.02;3.78;;;;;;;;;;5064181;28;20482;-30
2022/04/29 15:24:53;;;;;;;8.00;3.97;;;;;;;;;;5073091;28;20106;-31
2022/04/29 15:27:19;;;;;;;6.35;3.90;;;;;;;;;;5072433;28;20044;-30